createdAt,value
2023-02-03T00:01:19.979Z,12.00
2023-02-03T00:05:25.484Z,12.90
2023-02-03T00:09:29.028Z,13.83
2023-02-03T00:13:32.453Z,12.23
2023-02-03T00:17:35.756Z,14.77
2023-02-03T00:21:40.358Z,12.70
2023-02-03T00:25:43.707Z,12.40
2023-02-03T00:29:46.936Z,14.37
2023-02-03T00:33:55.984Z,14.50
2023-02-03T00:38:00.734Z,17.93
2023-02-03T00:42:05.123Z,16.80
2023-02-03T00:46:08.594Z,15.47
2023-02-03T00:50:12.790Z,12.70
2023-02-03T00:54:17.953Z,11.70
2023-02-03T00:58:21.125Z,11.67
2023-02-03T01:02:25.051Z,11.07
2023-02-03T01:06:28.670Z,7.03
2023-02-03T01:10:33.460Z,10.07
2023-02-03T01:14:36.770Z,8.77
2023-02-03T01:18:40.505Z,8.90
2023-02-03T01:22:44.182Z,18.47
2023-02-03T01:26:49.083Z,15.10
2023-02-03T01:30:52.531Z,15.70
2023-02-03T01:34:55.960Z,14.87
2023-02-03T01:38:59.364Z,14.90
2023-02-03T01:43:04.030Z,14.37
2023-02-03T01:47:16.226Z,15.93
2023-02-03T01:51:20.192Z,11.03
2023-02-03T01:55:28.009Z,14.00
2023-02-03T01:59:33.992Z,15.40
2023-02-03T02:03:43.906Z,15.67
2023-02-03T02:07:49.742Z,10.80
2023-02-03T02:11:52.995Z,14.33
2023-02-03T02:16:05.398Z,12.53
2023-02-03T02:20:32.073Z,11.60
2023-02-03T02:25:15.386Z,14.10
2023-02-03T02:29:51.663Z,13.43
2023-02-03T02:34:04.679Z,11.23
2023-02-03T02:38:17.280Z,12.40
2023-02-03T02:42:28.597Z,11.53
2023-02-03T02:46:39.772Z,11.10
2023-02-03T02:50:48.061Z,10.17
2023-02-03T02:54:55.020Z,9.33
2023-02-03T03:03:20.155Z,8.60
2023-02-03T03:07:27.833Z,11.47
2023-02-03T03:11:38.129Z,9.27
2023-02-03T03:15:43.590Z,7.57
2023-02-03T03:19:51.777Z,9.17
2023-02-03T03:24:00.571Z,10.83
2023-02-03T03:28:09.900Z,6.60
2023-02-03T03:32:13.443Z,9.13
2023-02-03T03:36:25.232Z,8.43
2023-02-03T03:40:35.090Z,5.40
2023-02-03T03:44:43.636Z,7.30
2023-02-03T03:48:54.081Z,7.60
2023-02-03T03:52:59.215Z,12.03
2023-02-03T03:57:08.613Z,12.20
2023-02-03T04:01:12.709Z,12.43
2023-02-03T04:05:16.514Z,14.83
2023-02-03T04:09:19.881Z,10.50
2023-02-03T04:13:24.639Z,12.70
2023-02-03T04:17:27.982Z,9.00
2023-02-03T04:21:31.290Z,11.63
2023-02-03T04:25:34.700Z,11.97
2023-02-03T04:29:39.482Z,10.40
2023-02-03T04:33:42.693Z,8.60
2023-02-03T04:37:46.556Z,15.70
2023-02-03T04:41:49.772Z,12.40
2023-02-03T04:45:54.569Z,13.63
2023-02-03T04:49:57.886Z,17.30
2023-02-03T04:54:01.307Z,13.00
2023-02-03T04:58:04.995Z,13.27
2023-02-03T05:02:09.543Z,13.03
2023-02-03T05:06:12.995Z,18.40
2023-02-03T05:10:16.458Z,14.63
2023-02-03T05:14:19.930Z,14.70
2023-02-03T05:18:24.580Z,15.77
2023-02-03T05:22:28.952Z,15.87
2023-02-03T05:26:32.148Z,14.83
2023-02-03T05:30:35.809Z,19.90
2023-02-03T05:34:42.315Z,22.90
2023-02-03T05:38:45.782Z,15.43
2023-02-03T05:42:50.120Z,16.67
2023-02-03T05:46:55.086Z,16.17
2023-02-03T05:50:59.933Z,16.17
2023-02-03T05:55:03.311Z,19.40
2023-02-03T05:59:07.101Z,14.00
2023-02-03T06:03:10.455Z,14.17
2023-02-03T06:07:15.173Z,14.97
2023-02-03T06:11:18.497Z,15.80
2023-02-03T06:15:21.922Z,16.13
2023-02-03T06:19:25.370Z,18.37
2023-02-03T06:23:31.238Z,16.70
2023-02-03T06:27:34.936Z,17.87
2023-02-03T06:31:38.390Z,12.80
2023-02-03T06:35:41.690Z,14.73
2023-02-03T06:39:46.348Z,17.60
2023-02-03T06:43:49.598Z,14.97
2023-02-03T06:47:53.297Z,18.93
2023-02-03T06:51:56.607Z,15.30
2023-02-03T06:56:02.314Z,19.13
2023-02-03T07:00:06.358Z,19.37
2023-02-03T07:04:10.238Z,18.87
2023-02-03T07:08:13.592Z,13.93
2023-02-03T07:12:18.234Z,16.13
2023-02-03T07:16:21.711Z,15.20
2023-02-03T07:20:26.463Z,16.17
2023-02-03T07:24:30.458Z,19.67
2023-02-03T07:28:36.225Z,20.00
2023-02-03T07:32:39.598Z,13.20
2023-02-03T07:36:42.916Z,16.27
2023-02-03T07:40:46.357Z,17.03
2023-02-03T07:44:50.982Z,19.97
2023-02-03T07:48:54.689Z,12.20
2023-02-03T07:52:57.965Z,13.87
2023-02-03T07:57:01.395Z,13.73
2023-02-03T08:01:12.579Z,14.13
2023-02-03T08:05:16.111Z,10.70
2023-02-03T08:09:19.583Z,10.37
2023-02-03T08:13:23.013Z,15.30
2023-02-03T08:17:27.668Z,14.37
2023-02-03T08:21:31.140Z,10.97
2023-02-03T08:25:34.651Z,11.27
2023-02-03T08:29:39.396Z,11.30
2023-02-03T08:38:04.990Z,8.97
2023-02-03T08:42:08.502Z,9.40
2023-02-03T08:46:13.835Z,10.50
2023-02-03T08:50:19.900Z,8.90
2023-02-03T08:54:23.635Z,9.37
2023-02-03T08:58:27.354Z,9.97
2023-02-03T09:02:31.067Z,16.17
2023-02-03T09:06:35.975Z,19.60
2023-02-03T09:10:39.387Z,13.70
2023-02-03T09:14:42.697Z,16.73
2023-02-03T09:18:46.867Z,18.77
2023-02-03T09:22:51.508Z,14.80
2023-02-03T09:26:56.001Z,14.87
2023-02-03T09:31:01.680Z,14.40
2023-02-03T09:35:05.140Z,11.90
2023-02-03T09:39:09.915Z,11.20
2023-02-03T09:43:29.063Z,9.63
2023-02-03T09:47:37.160Z,11.53
2023-02-03T09:51:48.554Z,10.80
2023-02-03T09:55:53.488Z,12.30
2023-02-03T09:59:58.831Z,9.43
2023-02-03T10:04:08.639Z,10.67
2023-02-03T10:08:25.208Z,9.47
2023-02-03T10:12:59.152Z,9.70
2023-02-03T10:17:18.175Z,9.00
2023-02-03T10:21:31.236Z,7.50
2023-02-03T10:25:39.691Z,7.13
2023-02-03T10:29:45.010Z,9.73
2023-02-03T10:33:48.998Z,7.70
2023-02-03T10:37:58.779Z,6.20
2023-02-03T10:47:18.131Z,5.20
2023-02-03T10:51:25.454Z,5.50
2023-02-03T10:55:33.205Z,5.50
2023-02-03T10:59:40.270Z,6.80
2023-02-03T11:03:45.330Z,5.30
2023-02-03T11:07:50.049Z,5.83
2023-02-03T11:12:06.967Z,4.50
2023-02-03T11:16:16.665Z,4.90
2023-02-03T11:20:20.284Z,4.43
2023-02-03T11:24:27.811Z,4.57
2023-02-03T11:28:31.171Z,5.30
2023-02-03T11:32:41.611Z,4.93
2023-02-03T11:36:44.937Z,3.97
2023-02-03T11:41:01.266Z,6.03
2023-02-03T11:45:15.824Z,3.20
2023-02-03T11:49:48.825Z,4.17
2023-02-03T11:54:03.991Z,3.37
2023-02-03T11:58:31.740Z,4.00
2023-02-03T12:03:04.715Z,4.60
2023-02-03T12:07:35.260Z,3.23
2023-02-03T12:11:56.444Z,3.87
2023-02-03T12:16:18.070Z,3.60
2023-02-03T12:20:34.380Z,3.53
2023-02-03T12:24:51.519Z,3.00
2023-02-03T12:29:01.891Z,2.80
2023-02-03T12:33:15.105Z,2.87
2023-02-03T12:37:23.616Z,2.60
2023-02-03T12:41:31.871Z,2.60
2023-02-03T12:45:39.887Z,2.77
2023-02-03T12:49:50.087Z,3.70
2023-02-03T12:53:59.171Z,6.50
2023-02-03T12:58:06.160Z,4.30
2023-02-03T13:02:18.047Z,11.10
2023-02-03T13:06:29.677Z,5.20
2023-02-03T13:10:38.297Z,8.23
2023-02-03T13:14:46.120Z,7.00
2023-02-03T13:18:55.175Z,6.80
2023-02-03T13:23:00.520Z,5.07
2023-02-03T13:27:27.789Z,5.23
2023-02-03T13:31:43.516Z,5.40
2023-02-03T13:35:58.206Z,5.60
2023-02-03T13:40:25.096Z,5.20
2023-02-03T13:44:30.670Z,9.73
2023-02-03T13:48:35.682Z,6.30
2023-02-03T13:52:56.286Z,5.10
2023-02-03T13:57:04.476Z,8.63
2023-02-03T14:01:33.446Z,6.97
2023-02-03T14:05:49.017Z,8.93
2023-02-03T14:10:21.709Z,6.03
2023-02-03T14:14:46.788Z,4.97
2023-02-03T14:18:50.090Z,7.80
2023-02-03T14:22:57.038Z,7.23
2023-02-03T14:27:02.289Z,6.37
2023-02-03T14:31:16.643Z,6.63
2023-02-03T14:35:22.978Z,5.50
2023-02-03T14:39:57.837Z,12.03
2023-02-03T14:44:10.236Z,6.87
2023-02-03T14:48:33.349Z,9.63
2023-02-03T14:52:54.130Z,8.13
2023-02-03T14:57:19.949Z,5.23
2023-02-03T15:01:48.208Z,6.30
2023-02-03T15:05:57.037Z,7.37
2023-02-03T15:10:00.472Z,9.90
2023-02-03T15:14:25.854Z,6.97
2023-02-03T15:18:32.205Z,6.30
2023-02-03T15:22:40.597Z,6.60
2023-02-03T15:26:48.316Z,5.43
2023-02-03T15:30:55.784Z,5.03
2023-02-03T15:35:00.617Z,11.90
2023-02-03T15:39:13.632Z,5.30
2023-02-03T15:43:20.442Z,6.50
2023-02-03T15:47:31.338Z,7.90
2023-02-03T15:51:39.263Z,7.77
2023-02-03T15:55:47.071Z,7.83
2023-02-03T15:59:55.536Z,8.30
2023-02-03T16:04:00.287Z,6.43
2023-02-03T16:08:29.758Z,10.63
2023-02-03T16:12:35.142Z,12.70
2023-02-03T16:16:43.737Z,14.00
2023-02-03T16:20:53.419Z,11.10
2023-02-03T16:24:56.781Z,8.63
2023-02-03T16:29:32.751Z,1.83
2023-02-03T16:33:55.628Z,1.97
2023-02-03T16:38:24.844Z,1.73
2023-02-03T16:42:45.902Z,0.80
2023-02-03T16:47:08.781Z,0.70
2023-02-03T16:51:15.992Z,1.70
2023-02-03T16:55:19.299Z,0.80
2023-02-03T16:59:22.992Z,0.83
2023-02-03T17:03:29.222Z,0.77
2023-02-03T17:07:33.753Z,0.60
2023-02-03T17:11:37.139Z,0.63
2023-02-03T17:15:45.017Z,0.80
2023-02-03T17:19:50.083Z,0.70
2023-02-03T17:23:54.400Z,2.93
2023-02-03T17:27:57.861Z,1.40
2023-02-03T17:32:01.476Z,1.17
2023-02-03T17:36:09.289Z,0.90
2023-02-03T17:53:21.155Z,2.30
2023-02-03T17:57:24.587Z,1.63
2023-02-03T18:01:28.812Z,1.40
2023-02-03T18:05:32.954Z,5.47
2023-02-03T18:09:38.697Z,1.83
2023-02-03T18:13:46.610Z,1.47
2023-02-03T18:17:50.561Z,1.30
2023-02-03T18:21:54.116Z,0.80
2023-02-03T18:25:59.530Z,1.77
2023-02-03T18:30:03.497Z,1.03
2023-02-03T18:34:08.187Z,1.63
2023-02-03T18:38:13.348Z,1.63
2023-02-03T18:42:20.590Z,1.60
2023-02-03T18:46:26.999Z,2.00
2023-02-03T18:50:32.471Z,2.70
2023-02-03T18:54:38.861Z,2.20
2023-02-03T18:58:44.981Z,3.40
2023-02-03T19:03:01.913Z,2.57
2023-02-03T19:07:08.944Z,4.33
2023-02-03T19:11:16.454Z,4.00
2023-02-03T19:15:23.430Z,6.63
2023-02-03T19:19:29.961Z,4.60
2023-02-03T19:23:36.676Z,4.90
2023-02-03T19:27:43.264Z,3.87
2023-02-03T19:31:50.083Z,3.90
2023-02-03T19:35:56.065Z,3.07
2023-02-03T19:40:02.790Z,2.47
2023-02-03T19:44:10.478Z,3.37
2023-02-03T19:48:37.802Z,2.40
2023-02-03T19:52:42.326Z,3.60
2023-02-03T19:56:48.054Z,2.60
2023-02-03T20:00:53.377Z,4.60
2023-02-03T20:05:00.565Z,3.20
2023-02-03T20:09:06.393Z,4.20
2023-02-03T20:13:11.443Z,1.73
2023-02-03T20:17:15.328Z,5.77
2023-02-03T20:21:22.170Z,4.20
2023-02-03T20:25:29.491Z,4.20
2023-02-03T20:29:38.134Z,2.93
2023-02-03T20:33:42.764Z,3.97
2023-02-03T20:37:48.522Z,2.40
2023-02-03T20:41:59.877Z,1.73
2023-02-03T20:46:05.440Z,3.03
2023-02-03T20:50:17.098Z,2.83
2023-02-03T20:54:25.271Z,2.30
2023-02-03T20:58:31.065Z,2.97
2023-02-03T21:02:56.647Z,4.10
2023-02-03T21:07:01.514Z,4.43
2023-02-03T21:11:14.110Z,3.20
2023-02-03T21:15:23.203Z,5.20
2023-02-03T21:19:31.029Z,3.93
2023-02-03T21:23:40.694Z,4.37
2023-02-03T21:27:48.407Z,5.20
2023-02-03T21:31:57.602Z,5.23
2023-02-03T21:36:02.871Z,4.73
2023-02-03T21:40:23.053Z,7.13
2023-02-03T21:44:36.492Z,6.90
2023-02-03T21:48:42.513Z,4.40
2023-02-03T21:52:47.878Z,6.60
2023-02-03T21:56:52.077Z,3.20
2023-02-03T22:00:58.361Z,4.10
2023-02-03T22:05:04.409Z,5.97
2023-02-03T22:09:12.576Z,6.20
2023-02-03T22:13:16.480Z,3.43
2023-02-03T22:17:21.298Z,2.63
2023-02-03T22:21:24.961Z,2.23
2023-02-03T22:25:28.595Z,1.90
2023-02-03T22:29:31.862Z,0.90
2023-02-03T22:33:37.227Z,5.00
2023-02-03T22:37:40.513Z,6.03
2023-02-03T22:41:44.165Z,3.07
2023-02-03T22:45:47.472Z,1.93
2023-02-03T22:49:52.200Z,5.03
2023-02-03T22:53:56.634Z,5.23
2023-02-03T22:58:00.340Z,3.00
2023-02-03T23:02:03.825Z,3.90
2023-02-03T23:06:08.836Z,2.00
2023-02-03T23:10:15.661Z,3.07
2023-02-03T23:14:20.567Z,3.73
2023-02-03T23:18:24.053Z,4.00
2023-02-03T23:22:28.748Z,4.87
2023-02-03T23:26:32.114Z,2.17
2023-02-03T23:30:35.404Z,3.47
2023-02-03T23:34:56.657Z,3.33
2023-02-03T23:39:01.497Z,4.40
2023-02-03T23:43:04.930Z,3.00
2023-02-03T23:47:08.911Z,4.80
2023-02-03T23:51:12.143Z,4.67
2023-02-03T23:55:19.017Z,3.87
2023-02-03T23:59:22.274Z,4.40
